sensor_id;sensor_type;location;lat;lon;timestamp;P1;durP1;ratioP1;P2;durP2;ratioP2
53263;SDS011;39153;52.680;6.172;2022-12-18T00:00:45;72.22;;;22.15;;
53263;SDS011;39153;52.680;6.172;2022-12-18T00:03:14;78.35;;;24.60;;
53263;SDS011;39153;52.680;6.172;2022-12-18T00:05:47;84.03;;;25.20;;
53263;SDS011;39153;52.680;6.172;2022-12-18T00:08:17;86.72;;;23.38;;
53263;SDS011;39153;52.680;6.172;2022-12-18T00:10:43;79.65;;;24.38;;
53263;SDS011;39153;52.680;6.172;2022-12-18T00:13:10;72.97;;;24.02;;
53263;SDS011;39153;52.680;6.172;2022-12-18T00:15:37;78.25;;;25.25;;
53263;SDS011;39153;52.680;6.172;2022-12-18T00:18:04;75.43;;;24.00;;
53263;SDS011;39153;52.680;6.172;2022-12-18T00:20:30;71.05;;;23.65;;
53263;SDS011;39153;52.680;6.172;2022-12-18T00:22:56;78.93;;;25.65;;
53263;SDS011;39153;52.680;6.172;2022-12-18T00:25:21;84.85;;;25.95;;
53263;SDS011;39153;52.680;6.172;2022-12-18T00:27:47;91.68;;;26.42;;
53263;SDS011;39153;52.680;6.172;2022-12-18T00:30:13;88.10;;;24.23;;
53263;SDS011;39153;52.680;6.172;2022-12-18T00:32:39;82.85;;;24.35;;
53263;SDS011;39153;52.680;6.172;2022-12-18T00:35:05;91.63;;;26.80;;
53263;SDS011;39153;52.680;6.172;2022-12-18T00:37:33;97.50;;;27.70;;
53263;SDS011;39153;52.680;6.172;2022-12-18T00:39:58;94.85;;;28.73;;
53263;SDS011;39153;52.680;6.172;2022-12-18T00:42:24;90.35;;;28.35;;
53263;SDS011;39153;52.680;6.172;2022-12-18T00:45:08;84.30;;;25.55;;
53263;SDS011;39153;52.680;6.172;2022-12-18T00:47:34;92.25;;;26.35;;
53263;SDS011;39153;52.680;6.172;2022-12-18T00:50:00;83.72;;;25.92;;
53263;SDS011;39153;52.680;6.172;2022-12-18T00:52:25;90.13;;;26.73;;
53263;SDS011;39153;52.680;6.172;2022-12-18T00:54:51;86.65;;;27.17;;
53263;SDS011;39153;52.680;6.172;2022-12-18T00:57:17;97.00;;;27.52;;
53263;SDS011;39153;52.680;6.172;2022-12-18T00:59:43;92.40;;;28.08;;
53263;SDS011;39153;52.680;6.172;2022-12-18T01:02:08;89.82;;;28.70;;
53263;SDS011;39153;52.680;6.172;2022-12-18T01:04:34;88.65;;;27.13;;
53263;SDS011;39153;52.680;6.172;2022-12-18T01:07:00;91.20;;;29.02;;
53263;SDS011;39153;52.680;6.172;2022-12-18T01:09:26;92.13;;;29.55;;
53263;SDS011;39153;52.680;6.172;2022-12-18T01:11:51;95.20;;;28.55;;
53263;SDS011;39153;52.680;6.172;2022-12-18T01:14:17;91.35;;;29.13;;
53263;SDS011;39153;52.680;6.172;2022-12-18T01:16:43;94.47;;;27.13;;
53263;SDS011;39153;52.680;6.172;2022-12-18T01:19:08;93.45;;;28.15;;
53263;SDS011;39153;52.680;6.172;2022-12-18T01:21:34;83.35;;;27.92;;
53263;SDS011;39153;52.680;6.172;2022-12-18T01:24:00;95.65;;;26.45;;
53263;SDS011;39153;52.680;6.172;2022-12-18T01:26:26;92.68;;;28.05;;
53263;SDS011;39153;52.680;6.172;2022-12-18T01:28:54;89.82;;;28.50;;
53263;SDS011;39153;52.680;6.172;2022-12-18T01:33:54;103.43;;;29.10;;
53263;SDS011;39153;52.680;6.172;2022-12-18T01:36:22;97.95;;;30.05;;
53263;SDS011;39153;52.680;6.172;2022-12-18T01:38:49;94.95;;;29.63;;
53263;SDS011;39153;52.680;6.172;2022-12-18T01:41:17;91.05;;;27.63;;
53263;SDS011;39153;52.680;6.172;2022-12-18T01:43:49;87.82;;;27.10;;
53263;SDS011;39153;52.680;6.172;2022-12-18T01:46:20;96.63;;;29.52;;
53263;SDS011;39153;52.680;6.172;2022-12-18T01:48:48;94.43;;;28.65;;
53263;SDS011;39153;52.680;6.172;2022-12-18T01:51:16;89.60;;;26.50;;
53263;SDS011;39153;52.680;6.172;2022-12-18T01:53:42;96.15;;;30.35;;
53263;SDS011;39153;52.680;6.172;2022-12-18T01:56:12;96.45;;;28.58;;
53263;SDS011;39153;52.680;6.172;2022-12-18T01:58:41;91.18;;;27.48;;
53263;SDS011;39153;52.680;6.172;2022-12-18T02:01:20;83.00;;;28.17;;
53263;SDS011;39153;52.680;6.172;2022-12-18T02:03:49;97.85;;;27.05;;
53263;SDS011;39153;52.680;6.172;2022-12-18T02:09:35;85.05;;;27.45;;
53263;SDS011;39153;52.680;6.172;2022-12-18T02:11:59;77.10;;;25.83;;
53263;SDS011;39153;52.680;6.172;2022-12-18T02:15:09;73.97;;;25.85;;
53263;SDS011;39153;52.680;6.172;2022-12-18T02:20:13;75.72;;;22.98;;
53263;SDS011;39153;52.680;6.172;2022-12-18T02:28:28;72.45;;;23.67;;
53263;SDS011;39153;52.680;6.172;2022-12-18T02:30:57;73.93;;;23.70;;
53263;SDS011;39153;52.680;6.172;2022-12-18T02:33:27;75.55;;;24.27;;
53263;SDS011;39153;52.680;6.172;2022-12-18T02:35:53;74.15;;;23.85;;
53263;SDS011;39153;52.680;6.172;2022-12-18T02:38:20;80.95;;;27.02;;
53263;SDS011;39153;52.680;6.172;2022-12-18T02:40:46;79.95;;;25.50;;
53263;SDS011;39153;52.680;6.172;2022-12-18T02:43:15;78.93;;;24.60;;
53263;SDS011;39153;52.680;6.172;2022-12-18T02:45:48;71.43;;;24.80;;
53263;SDS011;39153;52.680;6.172;2022-12-18T02:48:26;67.55;;;21.08;;
53263;SDS011;39153;52.680;6.172;2022-12-18T02:53:45;71.22;;;22.83;;
53263;SDS011;39153;52.680;6.172;2022-12-18T02:56:21;75.55;;;24.05;;
53263;SDS011;39153;52.680;6.172;2022-12-18T02:59:02;66.72;;;21.70;;
53263;SDS011;39153;52.680;6.172;2022-12-18T03:01:36;71.15;;;23.05;;
53263;SDS011;39153;52.680;6.172;2022-12-18T03:04:05;65.75;;;22.45;;
53263;SDS011;39153;52.680;6.172;2022-12-18T03:06:42;66.25;;;22.08;;
53263;SDS011;39153;52.680;6.172;2022-12-18T03:09:17;73.70;;;23.55;;
53263;SDS011;39153;52.680;6.172;2022-12-18T03:11:54;64.22;;;21.45;;
53263;SDS011;39153;52.680;6.172;2022-12-18T03:14:40;68.18;;;20.85;;
53263;SDS011;39153;52.680;6.172;2022-12-18T03:17:09;76.80;;;22.65;;
53263;SDS011;39153;52.680;6.172;2022-12-18T03:19:38;62.33;;;21.30;;
53263;SDS011;39153;52.680;6.172;2022-12-18T03:22:05;62.17;;;20.85;;
53263;SDS011;39153;52.680;6.172;2022-12-18T03:24:32;57.42;;;20.23;;
53263;SDS011;39153;52.680;6.172;2022-12-18T03:27:00;52.88;;;18.15;;
53263;SDS011;39153;52.680;6.172;2022-12-18T03:29:31;70.43;;;20.52;;
53263;SDS011;39153;52.680;6.172;2022-12-18T03:32:02;59.15;;;18.65;;
53263;SDS011;39153;52.680;6.172;2022-12-18T03:34:33;62.20;;;21.75;;
53263;SDS011;39153;52.680;6.172;2022-12-18T03:37:02;71.25;;;21.48;;
53263;SDS011;39153;52.680;6.172;2022-12-18T03:39:28;72.10;;;21.23;;
53263;SDS011;39153;52.680;6.172;2022-12-18T03:47:17;62.10;;;20.63;;
53263;SDS011;39153;52.680;6.172;2022-12-18T03:52:57;66.88;;;18.80;;
53263;SDS011;39153;52.680;6.172;2022-12-18T03:55:25;57.35;;;18.92;;
53263;SDS011;39153;52.680;6.172;2022-12-18T03:57:55;58.53;;;20.48;;
53263;SDS011;39153;52.680;6.172;2022-12-18T04:00:22;58.47;;;19.17;;
53263;SDS011;39153;52.680;6.172;2022-12-18T04:02:49;61.85;;;19.17;;
53263;SDS011;39153;52.680;6.172;2022-12-18T04:05:17;52.45;;;18.80;;
53263;SDS011;39153;52.680;6.172;2022-12-18T04:07:47;57.65;;;19.98;;
53263;SDS011;39153;52.680;6.172;2022-12-18T04:10:14;61.35;;;20.80;;
53263;SDS011;39153;52.680;6.172;2022-12-18T04:12:41;53.28;;;19.13;;
53263;SDS011;39153;52.680;6.172;2022-12-18T04:15:07;58.30;;;19.90;;
53263;SDS011;39153;52.680;6.172;2022-12-18T04:17:34;56.85;;;18.95;;
53263;SDS011;39153;52.680;6.172;2022-12-18T04:20:00;56.25;;;18.77;;
53263;SDS011;39153;52.680;6.172;2022-12-18T04:22:25;62.90;;;19.85;;
53263;SDS011;39153;52.680;6.172;2022-12-18T04:24:51;43.88;;;16.83;;
53263;SDS011;39153;52.680;6.172;2022-12-18T04:27:17;60.58;;;18.02;;
53263;SDS011;39153;52.680;6.172;2022-12-18T04:29:42;55.28;;;19.00;;
53263;SDS011;39153;52.680;6.172;2022-12-18T04:32:08;54.35;;;19.73;;
53263;SDS011;39153;52.680;6.172;2022-12-18T04:34:34;56.40;;;18.13;;
53263;SDS011;39153;52.680;6.172;2022-12-18T04:37:00;55.50;;;18.65;;
53263;SDS011;39153;52.680;6.172;2022-12-18T04:39:25;57.42;;;19.05;;
53263;SDS011;39153;52.680;6.172;2022-12-18T04:41:51;46.22;;;18.10;;
53263;SDS011;39153;52.680;6.172;2022-12-18T04:44:17;49.05;;;17.38;;
53263;SDS011;39153;52.680;6.172;2022-12-18T04:46:43;49.72;;;17.70;;
53263;SDS011;39153;52.680;6.172;2022-12-18T04:49:08;49.33;;;17.05;;
53263;SDS011;39153;52.680;6.172;2022-12-18T04:51:35;49.03;;;18.02;;
53263;SDS011;39153;52.680;6.172;2022-12-18T04:54:02;54.60;;;18.10;;
53263;SDS011;39153;52.680;6.172;2022-12-18T04:56:28;48.92;;;17.52;;
53263;SDS011;39153;52.680;6.172;2022-12-18T04:58:56;50.08;;;16.45;;
53263;SDS011;39153;52.680;6.172;2022-12-18T05:01:21;49.72;;;18.35;;
53263;SDS011;39153;52.680;6.172;2022-12-18T05:03:47;54.78;;;16.90;;
53263;SDS011;39153;52.680;6.172;2022-12-18T05:06:13;58.58;;;18.70;;
53263;SDS011;39153;52.680;6.172;2022-12-18T05:08:39;50.53;;;17.70;;
53263;SDS011;39153;52.680;6.172;2022-12-18T05:11:06;48.05;;;16.70;;
53263;SDS011;39153;52.680;6.172;2022-12-18T05:13:33;45.05;;;17.30;;
53263;SDS011;39153;52.680;6.172;2022-12-18T05:16:00;44.35;;;16.83;;
53263;SDS011;39153;52.680;6.172;2022-12-18T05:18:27;44.63;;;15.70;;
53263;SDS011;39153;52.680;6.172;2022-12-18T05:20:53;50.88;;;18.08;;
53263;SDS011;39153;52.680;6.172;2022-12-18T05:23:20;39.80;;;15.48;;
53263;SDS011;39153;52.680;6.172;2022-12-18T05:25:54;49.15;;;16.23;;
53263;SDS011;39153;52.680;6.172;2022-12-18T05:28:29;46.95;;;16.52;;
53263;SDS011;39153;52.680;6.172;2022-12-18T05:30:56;44.83;;;17.45;;
53263;SDS011;39153;52.680;6.172;2022-12-18T05:33:24;55.13;;;16.08;;
53263;SDS011;39153;52.680;6.172;2022-12-18T05:35:51;49.63;;;17.20;;
53263;SDS011;39153;52.680;6.172;2022-12-18T05:38:18;45.35;;;16.33;;
53263;SDS011;39153;52.680;6.172;2022-12-18T05:40:45;43.45;;;16.15;;
53263;SDS011;39153;52.680;6.172;2022-12-18T05:43:12;41.28;;;15.07;;
53263;SDS011;39153;52.680;6.172;2022-12-18T05:45:38;47.83;;;16.63;;
53263;SDS011;39153;52.680;6.172;2022-12-18T05:48:05;47.88;;;15.05;;
53263;SDS011;39153;52.680;6.172;2022-12-18T05:50:38;43.35;;;14.88;;
53263;SDS011;39153;52.680;6.172;2022-12-18T05:53:06;42.58;;;15.10;;
53263;SDS011;39153;52.680;6.172;2022-12-18T05:55:33;49.05;;;15.20;;
53263;SDS011;39153;52.680;6.172;2022-12-18T05:58:00;47.15;;;16.40;;
53263;SDS011;39153;52.680;6.172;2022-12-18T06:00:26;37.40;;;14.52;;
53263;SDS011;39153;52.680;6.172;2022-12-18T06:02:52;47.72;;;15.93;;
53263;SDS011;39153;52.680;6.172;2022-12-18T06:05:17;44.90;;;15.27;;
53263;SDS011;39153;52.680;6.172;2022-12-18T06:07:43;45.67;;;15.75;;
53263;SDS011;39153;52.680;6.172;2022-12-18T06:10:09;43.38;;;14.27;;
53263;SDS011;39153;52.680;6.172;2022-12-18T06:12:35;43.60;;;15.90;;
53263;SDS011;39153;52.680;6.172;2022-12-18T06:15:00;44.28;;;16.15;;
53263;SDS011;39153;52.680;6.172;2022-12-18T06:17:32;46.53;;;16.02;;
53263;SDS011;39153;52.680;6.172;2022-12-18T06:19:59;44.80;;;16.02;;
53263;SDS011;39153;52.680;6.172;2022-12-18T06:22:25;48.80;;;16.50;;
53263;SDS011;39153;52.680;6.172;2022-12-18T06:24:51;52.70;;;17.10;;
53263;SDS011;39153;52.680;6.172;2022-12-18T06:27:16;47.30;;;15.30;;
53263;SDS011;39153;52.680;6.172;2022-12-18T06:29:42;45.75;;;16.23;;
53263;SDS011;39153;52.680;6.172;2022-12-18T06:32:08;42.55;;;15.25;;
53263;SDS011;39153;52.680;6.172;2022-12-18T06:34:34;40.88;;;13.77;;
53263;SDS011;39153;52.680;6.172;2022-12-18T06:37:02;41.30;;;15.15;;
53263;SDS011;39153;52.680;6.172;2022-12-18T06:39:28;43.42;;;14.88;;
53263;SDS011;39153;52.680;6.172;2022-12-18T06:41:53;47.00;;;15.63;;
53263;SDS011;39153;52.680;6.172;2022-12-18T06:44:19;47.22;;;15.48;;
53263;SDS011;39153;52.680;6.172;2022-12-18T06:46:45;40.20;;;15.20;;
53263;SDS011;39153;52.680;6.172;2022-12-18T06:49:10;45.22;;;15.85;;
53263;SDS011;39153;52.680;6.172;2022-12-18T06:51:36;39.90;;;14.90;;
53263;SDS011;39153;52.680;6.172;2022-12-18T06:54:02;50.30;;;15.70;;
53263;SDS011;39153;52.680;6.172;2022-12-18T06:56:28;39.58;;;14.00;;
53263;SDS011;39153;52.680;6.172;2022-12-18T06:58:54;48.13;;;15.63;;
53263;SDS011;39153;52.680;6.172;2022-12-18T07:01:20;50.13;;;15.27;;
53263;SDS011;39153;52.680;6.172;2022-12-18T07:03:46;40.80;;;13.93;;
53263;SDS011;39153;52.680;6.172;2022-12-18T07:06:20;39.67;;;13.80;;
53263;SDS011;39153;52.680;6.172;2022-12-18T07:08:47;38.80;;;14.50;;
53263;SDS011;39153;52.680;6.172;2022-12-18T07:11:14;43.03;;;17.10;;
53263;SDS011;39153;52.680;6.172;2022-12-18T07:13:41;48.63;;;16.25;;
53263;SDS011;39153;52.680;6.172;2022-12-18T07:16:17;43.80;;;14.25;;
53263;SDS011;39153;52.680;6.172;2022-12-18T07:18:44;37.05;;;12.95;;
53263;SDS011;39153;52.680;6.172;2022-12-18T07:21:11;35.78;;;13.07;;
53263;SDS011;39153;52.680;6.172;2022-12-18T07:23:39;37.50;;;14.32;;
53263;SDS011;39153;52.680;6.172;2022-12-18T07:26:09;39.58;;;13.32;;
53263;SDS011;39153;52.680;6.172;2022-12-18T07:28:36;37.03;;;14.43;;
53263;SDS011;39153;52.680;6.172;2022-12-18T07:31:03;35.90;;;14.52;;
53263;SDS011;39153;52.680;6.172;2022-12-18T07:33:34;38.08;;;14.15;;
53263;SDS011;39153;52.680;6.172;2022-12-18T07:36:00;36.63;;;14.32;;
53263;SDS011;39153;52.680;6.172;2022-12-18T07:38:28;42.47;;;14.95;;
53263;SDS011;39153;52.680;6.172;2022-12-18T07:40:54;38.10;;;14.52;;
53263;SDS011;39153;52.680;6.172;2022-12-18T07:43:24;35.47;;;13.77;;
53263;SDS011;39153;52.680;6.172;2022-12-18T07:45:50;35.40;;;13.52;;
53263;SDS011;39153;52.680;6.172;2022-12-18T07:48:16;30.80;;;13.65;;
53263;SDS011;39153;52.680;6.172;2022-12-18T07:50:41;39.08;;;15.38;;
53263;SDS011;39153;52.680;6.172;2022-12-18T07:53:07;41.55;;;13.65;;
53263;SDS011;39153;52.680;6.172;2022-12-18T07:55:33;32.35;;;13.90;;
53263;SDS011;39153;52.680;6.172;2022-12-18T07:58:02;37.72;;;13.88;;
53263;SDS011;39153;52.680;6.172;2022-12-18T08:00:28;35.10;;;13.43;;
53263;SDS011;39153;52.680;6.172;2022-12-18T08:02:54;37.60;;;13.88;;
53263;SDS011;39153;52.680;6.172;2022-12-18T08:05:20;36.33;;;13.73;;
53263;SDS011;39153;52.680;6.172;2022-12-18T08:07:46;36.58;;;13.20;;
53263;SDS011;39153;52.680;6.172;2022-12-18T08:10:11;40.72;;;13.70;;
53263;SDS011;39153;52.680;6.172;2022-12-18T08:12:37;35.42;;;14.68;;
53263;SDS011;39153;52.680;6.172;2022-12-18T08:15:03;35.85;;;14.05;;
53263;SDS011;39153;52.680;6.172;2022-12-18T08:17:29;41.28;;;13.60;;
53263;SDS011;39153;52.680;6.172;2022-12-18T08:19:55;32.70;;;12.50;;
53263;SDS011;39153;52.680;6.172;2022-12-18T08:22:20;36.22;;;13.52;;
53263;SDS011;39153;52.680;6.172;2022-12-18T08:24:46;35.05;;;13.70;;
53263;SDS011;39153;52.680;6.172;2022-12-18T08:27:12;36.35;;;13.07;;
53263;SDS011;39153;52.680;6.172;2022-12-18T08:29:38;30.58;;;13.35;;
53263;SDS011;39153;52.680;6.172;2022-12-18T08:32:03;35.72;;;13.90;;
53263;SDS011;39153;52.680;6.172;2022-12-18T08:34:29;33.13;;;11.77;;
53263;SDS011;39153;52.680;6.172;2022-12-18T08:36:55;32.05;;;13.20;;
53263;SDS011;39153;52.680;6.172;2022-12-18T08:39:21;31.70;;;12.57;;
53263;SDS011;39153;52.680;6.172;2022-12-18T08:41:46;28.90;;;12.65;;
53263;SDS011;39153;52.680;6.172;2022-12-18T08:44:32;33.35;;;12.75;;
53263;SDS011;39153;52.680;6.172;2022-12-18T08:47:04;31.60;;;13.25;;
53263;SDS011;39153;52.680;6.172;2022-12-18T08:49:30;33.85;;;15.23;;
53263;SDS011;39153;52.680;6.172;2022-12-18T08:51:56;33.90;;;13.05;;
53263;SDS011;39153;52.680;6.172;2022-12-18T08:54:22;33.70;;;12.90;;
53263;SDS011;39153;52.680;6.172;2022-12-18T08:56:49;34.17;;;12.90;;
53263;SDS011;39153;52.680;6.172;2022-12-18T08:59:15;32.60;;;12.43;;
53263;SDS011;39153;52.680;6.172;2022-12-18T09:01:41;34.67;;;13.20;;
53263;SDS011;39153;52.680;6.172;2022-12-18T09:04:07;32.03;;;13.52;;
53263;SDS011;39153;52.680;6.172;2022-12-18T09:06:34;29.58;;;13.02;;
53263;SDS011;39153;52.680;6.172;2022-12-18T09:09:00;31.67;;;12.57;;
53263;SDS011;39153;52.680;6.172;2022-12-18T09:11:26;27.05;;;11.55;;
53263;SDS011;39153;52.680;6.172;2022-12-18T09:13:54;26.20;;;11.73;;
53263;SDS011;39153;52.680;6.172;2022-12-18T09:16:21;30.23;;;12.98;;
53263;SDS011;39153;52.680;6.172;2022-12-18T09:18:47;30.33;;;12.68;;
53263;SDS011;39153;52.680;6.172;2022-12-18T09:21:19;30.50;;;12.35;;
53263;SDS011;39153;52.680;6.172;2022-12-18T09:23:53;25.77;;;10.48;;
53263;SDS011;39153;52.680;6.172;2022-12-18T09:26:20;30.23;;;12.23;;
53263;SDS011;39153;52.680;6.172;2022-12-18T09:28:46;23.15;;;11.10;;
53263;SDS011;39153;52.680;6.172;2022-12-18T09:31:13;27.67;;;10.93;;
53263;SDS011;39153;52.680;6.172;2022-12-18T09:33:39;25.00;;;10.98;;
53263;SDS011;39153;52.680;6.172;2022-12-18T09:36:05;22.38;;;10.35;;
53263;SDS011;39153;52.680;6.172;2022-12-18T09:38:33;23.10;;;9.93;;
53263;SDS011;39153;52.680;6.172;2022-12-18T09:41:30;23.67;;;10.65;;
53263;SDS011;39153;52.680;6.172;2022-12-18T09:44:18;22.33;;;10.40;;
53263;SDS011;39153;52.680;6.172;2022-12-18T09:47:04;20.95;;;10.15;;
53263;SDS011;39153;52.680;6.172;2022-12-18T09:49:43;24.13;;;9.80;;
53263;SDS011;39153;52.680;6.172;2022-12-18T09:55:02;24.27;;;10.15;;
53263;SDS011;39153;52.680;6.172;2022-12-18T09:57:53;20.95;;;9.30;;
53263;SDS011;39153;52.680;6.172;2022-12-18T10:02:50;20.17;;;8.63;;
53263;SDS011;39153;52.680;6.172;2022-12-18T10:05:27;17.88;;;9.13;;
53263;SDS011;39153;52.680;6.172;2022-12-18T10:13:52;21.73;;;9.73;;
53263;SDS011;39153;52.680;6.172;2022-12-18T10:19:34;20.40;;;9.43;;
53263;SDS011;39153;52.680;6.172;2022-12-18T10:27:22;15.65;;;7.88;;
53263;SDS011;39153;52.680;6.172;2022-12-18T10:29:50;15.68;;;7.80;;
53263;SDS011;39153;52.680;6.172;2022-12-18T10:32:17;17.00;;;8.02;;
53263;SDS011;39153;52.680;6.172;2022-12-18T10:34:49;18.30;;;8.90;;
53263;SDS011;39153;52.680;6.172;2022-12-18T10:37:18;20.67;;;9.02;;
53263;SDS011;39153;52.680;6.172;2022-12-18T10:39:45;18.92;;;8.55;;
53263;SDS011;39153;52.680;6.172;2022-12-18T10:42:29;15.98;;;7.68;;
53263;SDS011;39153;52.680;6.172;2022-12-18T10:45:28;16.25;;;8.23;;
53263;SDS011;39153;52.680;6.172;2022-12-18T10:47:48;16.83;;;8.32;;
53263;SDS011;39153;52.680;6.172;2022-12-18T10:52:56;16.85;;;7.88;;
53263;SDS011;39153;52.680;6.172;2022-12-18T10:57:52;15.75;;;7.50;;
53263;SDS011;39153;52.680;6.172;2022-12-18T11:00:27;14.10;;;6.93;;
53263;SDS011;39153;52.680;6.172;2022-12-18T11:02:55;15.65;;;7.50;;
53263;SDS011;39153;52.680;6.172;2022-12-18T11:05:24;15.07;;;7.40;;
53263;SDS011;39153;52.680;6.172;2022-12-18T11:07:55;15.50;;;6.75;;
53263;SDS011;39153;52.680;6.172;2022-12-18T11:10:22;15.68;;;7.45;;
53263;SDS011;39153;52.680;6.172;2022-12-18T11:18:16;15.57;;;7.10;;
53263;SDS011;39153;52.680;6.172;2022-12-18T11:20:51;14.82;;;7.32;;
53263;SDS011;39153;52.680;6.172;2022-12-18T11:23:34;13.50;;;6.10;;
53263;SDS011;39153;52.680;6.172;2022-12-18T11:26:02;14.50;;;6.80;;
53263;SDS011;39153;52.680;6.172;2022-12-18T11:28:37;14.02;;;6.60;;
53263;SDS011;39153;52.680;6.172;2022-12-18T11:31:18;17.13;;;7.72;;
53263;SDS011;39153;52.680;6.172;2022-12-18T11:36:39;12.90;;;6.38;;
53263;SDS011;39153;52.680;6.172;2022-12-18T11:42:10;14.73;;;7.20;;
53263;SDS011;39153;52.680;6.172;2022-12-18T11:44:48;15.90;;;7.60;;
53263;SDS011;39153;52.680;6.172;2022-12-18T11:50:10;14.63;;;7.00;;
53263;SDS011;39153;52.680;6.172;2022-12-18T11:52:42;14.30;;;6.85;;
53263;SDS011;39153;52.680;6.172;2022-12-18T11:55:12;12.52;;;6.95;;
53263;SDS011;39153;52.680;6.172;2022-12-18T11:57:46;14.15;;;6.80;;
53263;SDS011;39153;52.680;6.172;2022-12-18T12:00:21;13.18;;;6.45;;
53263;SDS011;39153;52.680;6.172;2022-12-18T12:11:22;12.18;;;6.25;;
53263;SDS011;39153;52.680;6.172;2022-12-18T12:19:54;14.68;;;6.13;;
53263;SDS011;39153;52.680;6.172;2022-12-18T12:22:58;13.35;;;6.70;;
53263;SDS011;39153;52.680;6.172;2022-12-18T12:25:39;12.75;;;6.30;;
53263;SDS011;39153;52.680;6.172;2022-12-18T12:31:19;13.90;;;6.90;;
53263;SDS011;39153;52.680;6.172;2022-12-18T12:34:13;12.65;;;6.35;;
53263;SDS011;39153;52.680;6.172;2022-12-18T12:39:18;12.57;;;6.22;;
53263;SDS011;39153;52.680;6.172;2022-12-18T12:41:50;13.18;;;6.03;;
53263;SDS011;39153;52.680;6.172;2022-12-18T12:44:37;13.07;;;6.35;;
53263;SDS011;39153;52.680;6.172;2022-12-18T12:49:46;12.35;;;5.90;;
53263;SDS011;39153;52.680;6.172;2022-12-18T12:53:14;13.68;;;6.50;;
53263;SDS011;39153;52.680;6.172;2022-12-18T12:55:16;11.77;;;6.45;;
53263;SDS011;39153;52.680;6.172;2022-12-18T13:01:08;13.88;;;6.63;;
53263;SDS011;39153;52.680;6.172;2022-12-18T13:09:03;13.00;;;6.30;;
53263;SDS011;39153;52.680;6.172;2022-12-18T13:14:28;12.48;;;6.22;;
53263;SDS011;39153;52.680;6.172;2022-12-18T13:19:50;13.10;;;6.32;;
53263;SDS011;39153;52.680;6.172;2022-12-18T13:22:34;10.20;;;5.32;;
53263;SDS011;39153;52.680;6.172;2022-12-18T13:25:03;11.35;;;6.35;;
53263;SDS011;39153;52.680;6.172;2022-12-18T13:33:44;12.43;;;5.72;;
53263;SDS011;39153;52.680;6.172;2022-12-18T13:38:35;11.10;;;5.82;;
53263;SDS011;39153;52.680;6.172;2022-12-18T13:43:48;12.50;;;6.03;;
53263;SDS011;39153;52.680;6.172;2022-12-18T13:46:22;11.90;;;5.70;;
53263;SDS011;39153;52.680;6.172;2022-12-18T13:51:23;12.80;;;5.75;;
53263;SDS011;39153;52.680;6.172;2022-12-18T13:54:00;12.00;;;6.05;;
53263;SDS011;39153;52.680;6.172;2022-12-18T13:56:46;9.68;;;5.35;;
53263;SDS011;39153;52.680;6.172;2022-12-18T14:04:39;11.35;;;5.78;;
53263;SDS011;39153;52.680;6.172;2022-12-18T14:07:05;12.05;;;5.85;;
53263;SDS011;39153;52.680;6.172;2022-12-18T14:09:49;11.05;;;5.78;;
53263;SDS011;39153;52.680;6.172;2022-12-18T14:15:21;10.27;;;5.97;;
53263;SDS011;39153;52.680;6.172;2022-12-18T14:18:01;10.80;;;5.68;;
53263;SDS011;39153;52.680;6.172;2022-12-18T14:20:44;10.98;;;5.47;;
53263;SDS011;39153;52.680;6.172;2022-12-18T14:23:26;10.80;;;5.32;;
53263;SDS011;39153;52.680;6.172;2022-12-18T14:25:52;12.30;;;5.57;;
53263;SDS011;39153;52.680;6.172;2022-12-18T14:28:17;12.43;;;6.53;;
53263;SDS011;39153;52.680;6.172;2022-12-18T14:30:44;12.63;;;6.03;;
53263;SDS011;39153;52.680;6.172;2022-12-18T14:33:12;10.43;;;5.50;;
53263;SDS011;39153;52.680;6.172;2022-12-18T14:35:40;12.35;;;5.90;;
53263;SDS011;39153;52.680;6.172;2022-12-18T14:40:54;11.38;;;5.85;;
53263;SDS011;39153;52.680;6.172;2022-12-18T14:43:24;11.43;;;6.00;;
53263;SDS011;39153;52.680;6.172;2022-12-18T14:45:52;9.82;;;5.10;;
53263;SDS011;39153;52.680;6.172;2022-12-18T14:50:54;10.93;;;6.05;;
53263;SDS011;39153;52.680;6.172;2022-12-18T14:53:28;11.60;;;6.13;;
53263;SDS011;39153;52.680;6.172;2022-12-18T14:56:43;12.30;;;6.18;;
53263;SDS011;39153;52.680;6.172;2022-12-18T15:03:57;11.95;;;5.65;;
53263;SDS011;39153;52.680;6.172;2022-12-18T15:06:25;11.75;;;6.05;;
53263;SDS011;39153;52.680;6.172;2022-12-18T15:08:51;10.98;;;5.93;;
53263;SDS011;39153;52.680;6.172;2022-12-18T15:11:54;9.32;;;5.40;;
53263;SDS011;39153;52.680;6.172;2022-12-18T15:14:28;10.95;;;6.03;;
53263;SDS011;39153;52.680;6.172;2022-12-18T15:17:21;12.60;;;5.30;;
53263;SDS011;39153;52.680;6.172;2022-12-18T15:19:48;13.27;;;5.30;;
53263;SDS011;39153;52.680;6.172;2022-12-18T15:24:44;10.45;;;5.40;;
53263;SDS011;39153;52.680;6.172;2022-12-18T15:27:31;11.57;;;5.68;;
53263;SDS011;39153;52.680;6.172;2022-12-18T15:32:35;9.65;;;5.68;;
53263;SDS011;39153;52.680;6.172;2022-12-18T15:37:36;12.48;;;5.88;;
53263;SDS011;39153;52.680;6.172;2022-12-18T15:40:03;11.73;;;6.18;;
53263;SDS011;39153;52.680;6.172;2022-12-18T15:42:29;11.30;;;5.45;;
53263;SDS011;39153;52.680;6.172;2022-12-18T15:45:13;11.13;;;5.80;;
53263;SDS011;39153;52.680;6.172;2022-12-18T15:47:39;12.02;;;5.80;;
53263;SDS011;39153;52.680;6.172;2022-12-18T15:50:07;10.80;;;5.47;;
53263;SDS011;39153;52.680;6.172;2022-12-18T15:52:36;11.45;;;5.65;;
53263;SDS011;39153;52.680;6.172;2022-12-18T15:55:14;11.05;;;5.63;;
53263;SDS011;39153;52.680;6.172;2022-12-18T15:58:03;11.90;;;5.40;;
53263;SDS011;39153;52.680;6.172;2022-12-18T16:00:29;12.38;;;5.88;;
53263;SDS011;39153;52.680;6.172;2022-12-18T16:02:56;10.50;;;5.57;;
53263;SDS011;39153;52.680;6.172;2022-12-18T16:05:22;10.68;;;5.63;;
53263;SDS011;39153;52.680;6.172;2022-12-18T16:07:49;15.77;;;6.45;;
53263;SDS011;39153;52.680;6.172;2022-12-18T16:10:14;11.05;;;5.75;;
53263;SDS011;39153;52.680;6.172;2022-12-18T16:12:40;9.55;;;5.70;;
53263;SDS011;39153;52.680;6.172;2022-12-18T16:15:07;10.63;;;5.70;;
53263;SDS011;39153;52.680;6.172;2022-12-18T16:17:34;13.10;;;6.03;;
53263;SDS011;39153;52.680;6.172;2022-12-18T16:20:00;15.55;;;6.05;;
53263;SDS011;39153;52.680;6.172;2022-12-18T16:22:27;12.35;;;6.20;;
53263;SDS011;39153;52.680;6.172;2022-12-18T16:24:54;11.88;;;5.88;;
53263;SDS011;39153;52.680;6.172;2022-12-18T16:27:21;11.68;;;6.30;;
53263;SDS011;39153;52.680;6.172;2022-12-18T16:29:47;10.20;;;5.82;;
53263;SDS011;39153;52.680;6.172;2022-12-18T16:32:17;12.82;;;6.45;;
53263;SDS011;39153;52.680;6.172;2022-12-18T16:34:44;12.88;;;6.30;;
53263;SDS011;39153;52.680;6.172;2022-12-18T16:37:11;12.52;;;6.60;;
53263;SDS011;39153;52.680;6.172;2022-12-18T16:39:39;13.27;;;6.97;;
53263;SDS011;39153;52.680;6.172;2022-12-18T16:44:39;13.52;;;6.72;;
53263;SDS011;39153;52.680;6.172;2022-12-18T16:47:05;15.57;;;7.22;;
53263;SDS011;39153;52.680;6.172;2022-12-18T16:49:31;15.75;;;7.32;;
53263;SDS011;39153;52.680;6.172;2022-12-18T16:51:57;14.93;;;6.78;;
53263;SDS011;39153;52.680;6.172;2022-12-18T16:54:23;12.40;;;6.70;;
53263;SDS011;39153;52.680;6.172;2022-12-18T16:56:49;15.90;;;6.80;;
53263;SDS011;39153;52.680;6.172;2022-12-18T16:59:15;14.23;;;7.15;;
53263;SDS011;39153;52.680;6.172;2022-12-18T17:01:41;13.18;;;6.82;;
53263;SDS011;39153;52.680;6.172;2022-12-18T17:04:07;14.48;;;7.00;;